首页
METAR-TAF:

METAR-TAF

机场 :

诺福克海军基地

諾福克, 弗吉尼亚州, 美国

纬度: 36-56-01N, 经度: 076-17-45W, 海拔: 4米

当前天气观测

该预报发布于1小时和2分钟前的00:59 UTC
风速3节,风向南转南东
温度 -2°C
湿度 69%
气压 1038 hPa
能見度: 16.1公里
多云层高于25000英尺

METAR: KNGU 230059Z 16003KT 10SM BKN250 M02/M07 A3066 RMK AO2 SLP383 T10221067

时间: 21:01 (02:01 UTC)

预报

预报有效从22日的 23点(UTC)到 23日的 23点(UTC)
风速5节,风向
能见度10公里或以上
少量云层高于3000英尺
散云层高于25000英尺
短暂存在
从 22日的 23点(UTC)到 23日的 05点(UTC)
风速5节,风向多变
少量云层高于3000英尺
多云层高于25000英尺
成为
从 23日的 08点(UTC)到 23日的 10点(UTC)
风速6节,风向
少量云层高于2000英尺
散云层高于5000英尺
多云层高于25000英尺
成为
从 23日的 13点(UTC)到 23日的 15点(UTC)
风速15节,风向
少量云层高于1500英尺
多云层高于3000英尺
阴天层高于25000英尺

TAF: KNGU 2223/2323 10005KT 9999 FEW030 SCT250 QNH3050INS TEMPO 2223/2305 VRB05KT FEW030 BKN250 BECMG 2308/2310 19006KT FEW020 SCT050 BKN250 QNH3040INS BECMG 2313/2315 18015KT FEW015 BKN030 OVC250 QNH3030INS TM02/2223Z T16/2321Z FN00067

超过4000个机场的气象观测和天气预报(METAR&TAF报告)。

可查询的气象台以黄色和红色小点在地图上表示。

将鼠标移到小点上方,可查看气象台名称。

然后点击查看天气观测和预报。

如需切换地图:点击带黑十字的绿色按钮放大地图;点击带横线的绿色按钮缩小地图;或者点击绿色箭头查看邻近地区的地图。


METAR-TAF: